| time (UTC) | temp F | wind direction | speed MPH | gust MPH | rain 1hr in | rain 24hr in | rain mn in | humidity % | barometer mb |
| 20260502183506 | 85 | 186 | 4.0 | 14.0 | 0.00 | 0.00 | 0.00 | 25 | 1015.2 |
| 20260502183016 | 85 | 149 | 6.0 | 14.0 | 0.00 | 0.00 | 0.00 | 25 | 1015.1 |
| 20260502182507 | 84 | 1 | 3.0 | 11.0 | 0.00 | 0.00 | 0.00 | 26 | 1015.2 |
| 20260502182009 | 84 | 13 | 3.0 | 11.0 | 0.00 | 0.00 | 0.00 | 26 | 1015.4 |
| 20260502181519 | 84 | 10 | 4.0 | 11.0 | 0.00 | 0.00 | 0.00 | 25 | 1015.5 |
| 20260502181007 | 83 | 15 | 5.0 | 10.0 | 0.00 | 0.00 | 0.00 | 26 | 1015.5 |
| 20260502180503 | 84 | 18 | 4.0 | 10.0 | 0.00 | 0.00 | 0.00 | 26 | 1015.6 |
| 20260502170507 | 80 | 62 | 2.0 | 12.0 | 0.00 | 0.00 | 0.00 | 30 | 1015.8 |
| 20260502164004 | 79 | 9 | 6.0 | 14.0 | 0.00 | 0.00 | 0.00 | 31 | 1015.8 |
| 20260502163508 | 79 | 16 | 3.0 | 16.0 | 0.00 | 0.00 | 0.00 | 31 | 1015.8 |
| 20260502163006 | 79 | 5 | 5.0 | 16.0 | 0.00 | 0.00 | 0.00 | 31 | 1015.8 |
| 20260502162504 | 78 | 5 | 6.0 | 13.0 | 0.00 | 0.00 | 0.00 | 31 | 1015.7 |
| 20260502162004 | 78 | 6 | 7.0 | 13.0 | 0.00 | 0.00 | 0.00 | 31 | 1015.7 |
| 20260502161504 | 78 | 4 | 8.0 | 17.0 | 0.00 | 0.00 | 0.00 | 31 | 1015.7 |
| 20260502161008 | 78 | 15 | 9.0 | 17.0 | 0.00 | 0.00 | 0.00 | 32 | 1015.6 |
| 20260502160503 | 78 | 4 | 8.0 | 18.0 | 0.00 | 0.00 | 0.00 | 32 | 1015.6 |
| 20260502152005 | 76 | 4 | 8.0 | 16.0 | 0.00 | 0.00 | 0.00 | 34 | 1015.2 |
| 20260502151523 | 76 | 4 | 9.0 | 18.0 | 0.00 | 0.00 | 0.00 | 34 | 1015.1 |
| 20260502151005 | 76 | 4 | 7.0 | 18.0 | 0.00 | 0.00 | 0.00 | 34 | 1015.1 |
| 20260502150503 | 76 | 4 | 6.0 | 12.0 | 0.00 | 0.00 | 0.00 | 34 | 1015.0 |
| 20260502130502 | 60 | 3 | 0.0 | 2.0 | 0.00 | 0.00 | 0.00 | 41 | 1014.0 |
| 20260502123501 | 59 | 3 | 0.0 | 2.0 | 0.00 | 0.00 | 0.00 | 41 | 1013.7 |
| 20260502123042 | 59 | 3 | 0.0 | 1.0 | 0.00 | 0.00 | 0.00 | 41 | 1013.6 |
| 20260502122507 | 60 | 3 | 0.0 | 0.0 | 0.00 | 0.00 | 0.00 | 40 | 1013.7 |
| 20260502122001 | 60 | 3 | 0.0 | 0.0 | 0.00 | 0.00 | 0.00 | 40 | 1013.6 |
| 20260502121524 | 60 | 3 | 0.0 | 0.0 | 0.00 | 0.00 | 0.00 | 40 | 1013.5 |
| 20260502121005 | 60 | 3 | 0.0 | 0.0 | 0.00 | 0.00 | 0.00 | 39 | 1013.5 |
| 20260502120502 | 61 | 3 | 0.0 | 2.0 | 0.00 | 0.00 | 0.00 | 39 | 1013.6 |
| 20260502115508 | 61 | 3 | 1.0 | 3.0 | 0.00 | 0.00 | 0.00 | 38 | 1013.4 |
| 20260502115003 | 62 | 3 | 1.0 | 3.0 | 0.00 | 0.00 | 0.00 | 37 | 1013.5 |
| 20260502114524 | 62 | 3 | 1.0 | 4.0 | 0.00 | 0.00 | 0.00 | 37 | 1013.4 |
| 20260502114004 | 62 | 3 | 1.0 | 4.0 | 0.00 | 0.00 | 0.00 | 37 | 1013.3 |
| 20260502113504 | 62 | 3 | 1.0 | 4.0 | 0.00 | 0.00 | 0.00 | 37 | 1013.3 |
| 20260502113026 | 62 | 2 | 2.0 | 5.0 | 0.00 | 0.00 | 0.00 | 37 | 1013.3 |
| 20260502112508 | 62 | 2 | 2.0 | 5.0 | 0.00 | 0.00 | 0.00 | 37 | 1013.3 |
| 20260502112002 | 62 | 2 | 1.0 | 4.0 | 0.00 | 0.00 | 0.00 | 37 | 1013.4 |
| 20260502111530 | 62 | 1 | 2.0 | 4.0 | 0.00 | 0.00 | 0.00 | 37 | 1013.5 |
| 20260502111005 | 62 | 1 | 1.0 | 3.0 | 0.00 | 0.00 | 0.00 | 36 | 1013.6 |
| 20260502110502 | 62 | 1 | 1.0 | 3.0 | 0.00 | 0.00 | 0.00 | 36 | 1013.6 |
| 20260502110022 | 63 | 1 | 1.0 | 3.0 | 0.00 | 0.00 | 0.00 | 35 | 1013.6 |
| 20260502105506 | 63 | 1 | 1.0 | 2.0 | 0.00 | 0.00 | 0.00 | 35 | 1013.5 |
| 20260502105009 | 64 | 1 | 0.0 | 0.0 | 0.00 | 0.00 | 0.00 | 34 | 1013.6 |
| 20260502104521 | 64 | 1 | 0.0 | 0.0 | 0.00 | 0.00 | 0.00 | 33 | 1013.7 |
| 20260502104005 | 64 | 1 | 0.0 | 1.0 | 0.00 | 0.00 | 0.00 | 33 | 1013.6 |
| 20260502103510 | 65 | 1 | 0.0 | 1.0 | 0.00 | 0.00 | 0.00 | 33 | 1013.5 |
| 20260502103023 | 65 | 1 | 0.0 | 3.0 | 0.00 | 0.00 | 0.00 | 32 | 1013.4 |
| 20260502102507 | 65 | 1 | 0.0 | 3.0 | 0.00 | 0.00 | 0.00 | 32 | 1013.3 |
| 20260502102021 | 65 | 1 | 2.0 | 3.0 | 0.00 | 0.00 | 0.00 | 32 | 1013.2 |
| 20260502101524 | 66 | 10 | 1.0 | 3.0 | 0.00 | 0.00 | 0.00 | 32 | 1013.3 |
| 20260502101004 | 65 | 10 | 0.0 | 4.0 | 0.00 | 0.00 | 0.00 | 32 | 1013.3 |
| 20260502100509 | 65 | 10 | 0.0 | 5.0 | 0.00 | 0.00 | 0.00 | 32 | 1013.3 |
| 20260502091523 | 66 | 3 | 1.0 | 4.0 | 0.00 | 0.00 | 0.00 | 31 | 1013.0 |
| 20260502091006 | 66 | 3 | 1.0 | 4.0 | 0.00 | 0.00 | 0.00 | 31 | 1013.1 |
| 20260502090508 | 66 | 3 | 2.0 | 4.0 | 0.00 | 0.00 | 0.00 | 31 | 1013.1 |
| 20260502071526 | 67 | 10 | 0.0 | 1.0 | 0.00 | 0.00 | 0.00 | 31 | 1013.3 |
| 20260502071004 | 67 | 10 | 0.0 | 1.0 | 0.00 | 0.00 | 0.00 | 30 | 1013.3 |
| 20260502070511 | 67 | 10 | 0.0 | 1.0 | 0.00 | 0.00 | 0.00 | 30 | 1013.3 |
| 20260502070025 | 68 | 10 | 0.0 | 1.0 | 0.00 | 0.00 | 0.00 | 30 | 1013.3 |
| 20260502065504 | 68 | 10 | 0.0 | 2.0 | 0.00 | 0.00 | 0.00 | 30 | 1013.3 |
| 20260502065014 | 68 | 10 | 0.0 | 2.0 | 0.00 | 0.00 | 0.00 | 30 | 1013.4 |
| 20260502064505 | 68 | 10 | 0.0 | 2.0 | 0.00 | 0.00 | 0.00 | 29 | 1013.4 |
| 20260502064004 | 69 | 10 | 0.0 | 1.0 | 0.00 | 0.00 | 0.00 | 28 | 1013.3 |
| 20260502063503 | 70 | 10 | 0.0 | 2.0 | 0.00 | 0.00 | 0.00 | 28 | 1013.3 |
| 20260502063003 | 70 | 10 | 0.0 | 2.0 | 0.00 | 0.00 | 0.00 | 28 | 1013.2 |
| 20260502062504 | 71 | 10 | 0.0 | 2.0 | 0.00 | 0.00 | 0.00 | 27 | 1013.1 |
| 20260502062003 | 72 | 10 | 0.0 | 2.0 | 0.00 | 0.00 | 0.00 | 26 | 1012.9 |
| 20260502061503 | 72 | 10 | 0.0 | 2.0 | 0.00 | 0.00 | 0.00 | 26 | 1012.8 |
| 20260502061006 | 73 | 10 | 0.0 | 4.0 | 0.00 | 0.00 | 0.00 | 25 | 1012.8 |
| 20260502060503 | 73 | 10 | 0.0 | 4.0 | 0.00 | 0.00 | 0.00 | 25 | 1012.8 |
| 20260502060003 | 73 | 10 | 1.0 | 5.0 | 0.00 | 0.00 | 0.00 | 25 | 1012.8 |
| 20260502055504 | 73 | 10 | 1.0 | 5.0 | 0.00 | 0.00 | 0.00 | 25 | 1012.7 |
| 20260502055004 | 73 | 360 | 2.0 | 4.0 | 0.00 | 0.00 | 0.00 | 25 | 1012.7 |
| 20260502054504 | 74 | 360 | 0.0 | 4.0 | 0.00 | 0.00 | 0.00 | 24 | 1012.6 |
| 20260502054005 | 74 | 360 | 1.0 | 4.0 | 0.00 | 0.00 | 0.00 | 24 | 1012.6 |
| 20260502053506 | 75 | 360 | 0.0 | 5.0 | 0.00 | 0.00 | 0.00 | 24 | 1012.5 |
| 20260502053004 | 75 | 360 | 2.0 | 5.0 | 0.00 | 0.00 | 0.00 | 24 | 1012.5 |
| 20260502052506 | 75 | 1 | 2.0 | 6.0 | 0.00 | 0.00 | 0.00 | 24 | 1012.4 |
| 20260502052004 | 75 | 360 | 2.0 | 6.0 | 0.00 | 0.00 | 0.00 | 24 | 1012.5 |
| 20260502051525 | 75 | 1 | 1.0 | 7.0 | 0.00 | 0.00 | 0.00 | 24 | 1012.4 |
| 20260502051003 | 75 | 1 | 2.0 | 7.0 | 0.00 | 0.00 | 0.00 | 24 | 1012.4 |
| 20260502050505 | 75 | 10 | 3.0 | 5.0 | 0.00 | 0.00 | 0.00 | 24 | 1012.4 |
| 20260502050033 | 75 | 10 | 2.0 | 4.0 | 0.00 | 0.00 | 0.00 | 24 | 1012.4 |
| 20260502045504 | 75 | 10 | 1.0 | 4.0 | 0.00 | 0.00 | 0.00 | 24 | 1012.4 |
| 20260502045004 | 75 | 10 | 1.0 | 5.0 | 0.00 | 0.00 | 0.00 | 24 | 1012.3 |
| 20260502044522 | 75 | 10 | 2.0 | 5.0 | 0.00 | 0.00 | 0.00 | 24 | 1012.3 |
| 20260502044004 | 74 | 10 | 2.0 | 5.0 | 0.00 | 0.00 | 0.00 | 25 | 1012.2 |
| 20260502043505 | 74 | 10 | 2.0 | 5.0 | 0.00 | 0.00 | 0.00 | 25 | 1012.3 |
| 20260502043024 | 74 | 10 | 1.0 | 5.0 | 0.00 | 0.00 | 0.00 | 25 | 1012.2 |
| 20260502042506 | 74 | 10 | 1.0 | 5.0 | 0.00 | 0.00 | 0.00 | 25 | 1012.2 |
| 20260502042003 | 74 | 10 | 2.0 | 5.0 | 0.00 | 0.00 | 0.00 | 25 | 1012.2 |
| 20260502041527 | 74 | 9 | 1.0 | 4.0 | 0.00 | 0.00 | 0.00 | 25 | 1012.1 |
| 20260502041006 | 75 | 9 | 1.0 | 3.0 | 0.00 | 0.00 | 0.00 | 25 | 1012.0 |
| 20260502040503 | 75 | 9 | 0.0 | 4.0 | 0.00 | 0.00 | 0.00 | 25 | 1011.9 |
| 20260502040024 | 75 | 9 | 1.0 | 4.0 | 0.00 | 0.00 | 0.00 | 24 | 1011.9 |
| 20260502035503 | 75 | 9 | 1.0 | 3.0 | 0.00 | 0.00 | 0.00 | 24 | 1011.8 |
| 20260502035006 | 76 | 9 | 1.0 | 4.0 | 0.00 | 0.00 | 0.00 | 24 | 1011.7 |
| 20260502034523 | 76 | 9 | 1.0 | 4.0 | 0.00 | 0.00 | 0.00 | 24 | 1011.7 |
| 20260502034005 | 76 | 9 | 1.0 | 3.0 | 0.00 | 0.00 | 0.00 | 24 | 1011.6 |
| 20260502033505 | 76 | 9 | 1.0 | 3.0 | 0.00 | 0.00 | 0.00 | 23 | 1011.5 |
| 20260502033022 | 77 | 9 | 1.0 | 3.0 | 0.00 | 0.00 | 0.00 | 23 | 1011.4 |
| 20260502032504 | 77 | 9 | 1.0 | 3.0 | 0.00 | 0.00 | 0.00 | 23 | 1011.4 |
| 20260502032005 | 77 | 9 | 1.0 | 3.0 | 0.00 | 0.00 | 0.00 | 23 | 1011.2 |
| 20260502031522 | 77 | 9 | 1.0 | 3.0 | 0.00 | 0.00 | 0.00 | 23 | 1011.2 |
| 20260502031008 | 77 | 9 | 1.0 | 3.0 | 0.00 | 0.00 | 0.00 | 23 | 1011.0 |
| 20260502030504 | 77 | 9 | 1.0 | 3.0 | 0.00 | 0.00 | 0.00 | 23 | 1011.0 |
| 20260502030028 | 78 | 9 | 1.0 | 3.0 | 0.00 | 0.00 | 0.00 | 22 | 1010.9 |
| 20260502025504 | 78 | 9 | 1.0 | 3.0 | 0.00 | 0.00 | 0.00 | 22 | 1010.8 |
| 20260502025003 | 78 | 9 | 0.0 | 2.0 | 0.00 | 0.00 | 0.00 | 22 | 1010.8 |
| 20260502024526 | 78 | 9 | 1.0 | 2.0 | 0.00 | 0.00 | 0.00 | 22 | 1010.7 |
| 20260502024004 | 79 | 9 | 0.0 | 2.0 | 0.00 | 0.00 | 0.00 | 22 | 1010.7 |
| 20260502023504 | 79 | 9 | 0.0 | 2.0 | 0.00 | 0.00 | 0.00 | 21 | 1010.6 |
| 20260502023022 | 80 | 9 | 0.0 | 3.0 | 0.00 | 0.00 | 0.00 | 21 | 1010.6 |
| 20260502022504 | 80 | 9 | 1.0 | 3.0 | 0.00 | 0.00 | 0.00 | 21 | 1010.6 |
| 20260502022004 | 80 | 9 | 1.0 | 4.0 | 0.00 | 0.00 | 0.00 | 20 | 1010.7 |
| 20260502021520 | 80 | 9 | 1.0 | 4.0 | 0.00 | 0.00 | 0.00 | 20 | 1010.7 |
| 20260502021006 | 81 | 9 | 1.0 | 6.0 | 0.00 | 0.00 | 0.00 | 20 | 1010.5 |
| 20260502020504 | 81 | 9 | 2.0 | 6.0 | 0.00 | 0.00 | 0.00 | 20 | 1010.4 |
| 20260502020022 | 82 | 9 | 1.0 | 7.0 | 0.00 | 0.00 | 0.00 | 20 | 1010.3 |
| 20260502015506 | 82 | 9 | 2.0 | 8.0 | 0.00 | 0.00 | 0.00 | 19 | 1010.4 |
| 20260502015004 | 82 | 8 | 4.0 | 8.0 | 0.00 | 0.00 | 0.00 | 19 | 1010.3 |
| 20260502014519 | 82 | 9 | 3.0 | 8.0 | 0.00 | 0.00 | 0.00 | 19 | 1010.3 |
| 20260502014003 | 82 | 10 | 2.0 | 8.0 | 0.00 | 0.00 | 0.00 | 19 | 1010.3 |
| 20260502013503 | 83 | 10 | 2.0 | 8.0 | 0.00 | 0.00 | 0.00 | 18 | 1010.3 |
| 20260502013023 | 83 | 9 | 3.0 | 9.0 | 0.00 | 0.00 | 0.00 | 18 | 1010.3 |
| 20260502012506 | 83 | 8 | 3.0 | 9.0 | 0.00 | 0.00 | 0.00 | 18 | 1010.3 |
| 20260502012004 | 84 | 9 | 2.0 | 9.0 | 0.00 | 0.00 | 0.00 | 17 | 1010.2 |
| 20260502011523 | 84 | 8 | 4.0 | 11.0 | 0.00 | 0.00 | 0.00 | 16 | 1010.2 |
| 20260502011004 | 84 | 9 | 6.0 | 12.0 | 0.00 | 0.00 | 0.00 | 17 | 1010.2 |
| 20260502010505 | 85 | 22 | 7.0 | 12.0 | 0.00 | 0.00 | 0.00 | 17 | 1010.1 |
| 20260502010027 | 85 | 18 | 5.0 | 9.0 | 0.00 | 0.00 | 0.00 | 16 | 1010.1 |
| 20260502005503 | 85 | 23 | 4.0 | 11.0 | 0.00 | 0.00 | 0.00 | 16 | 1010.0 |
| 20260502005003 | 85 | 22 | 3.0 | 11.0 | 0.00 | 0.00 | 0.00 | 16 | 1009.9 |
| 20260502004541 | 85 | 30 | 4.0 | 13.0 | 0.00 | 0.00 | 0.00 | 17 | 1009.9 |
| 20260502004005 | 85 | 30 | 3.0 | 13.0 | 0.00 | 0.00 | 0.00 | 17 | 1009.9 |
| 20260502003504 | 86 | 27 | 2.0 | 10.0 | 0.00 | 0.00 | 0.00 | 17 | 1010.0 |
| 20260502003023 | 86 | 29 | 5.0 | 11.0 | 0.00 | 0.00 | 0.00 | 17 | 1010.0 |
| 20260502002503 | 86 | 340 | 6.0 | 11.0 | 0.00 | 0.00 | 0.00 | 17 | 1010.0 |
| 20260502002003 | 86 | 321 | 6.0 | 11.0 | 0.00 | 0.00 | 0.00 | 16 | 1010.0 |
| 20260502001520 | 86 | 326 | 4.0 | 8.0 | 0.00 | 0.00 | 0.00 | 16 | 1010.0 |
| 20260502001004 | 86 | 278 | 3.0 | 12.0 | 0.00 | 0.00 | 0.00 | 15 | 1010.0 |
| 20260502000507 | 87 | 343 | 4.0 | 12.0 | 0.00 | 0.00 | 0.00 | 15 | 1010.1 |
| 20260502000025 | 87 | 319 | 6.0 | 9.0 | 0.00 | 0.00 | 0.00 | 15 | 1010.1 |
| 20260501235504 | 87 | 297 | 2.0 | 12.0 | 0.00 | 0.00 | 0.00 | 16 | 1010.1 |
| 20260501235010 | 87 | 335 | 4.0 | 12.0 | 0.00 | 0.00 | 0.00 | 16 | 1010.0 |
| 20260501234519 | 87 | 332 | 5.0 | 11.0 | 0.00 | 0.00 | 0.00 | 17 | 1010.0 |
| 20260501234007 | 86 | 302 | 3.0 | 11.0 | 0.00 | 0.00 | 0.00 | 18 | 1010.1 |
| 20260501233510 | 86 | 330 | 6.0 | 11.0 | 0.00 | 0.00 | 0.00 | 17 | 1010.0 |
| 20260501233020 | 86 | 250 | 2.0 | 10.0 | 0.00 | 0.00 | 0.00 | 18 | 1010.0 |
| 20260501232508 | 86 | 290 | 2.0 | 14.0 | 0.00 | 0.00 | 0.00 | 18 | 1010.0 |
| 20260501232014 | 86 | 265 | 5.0 | 14.0 | 0.00 | 0.00 | 0.00 | 18 | 1010.0 |
| 20260501231521 | 87 | 272 | 4.0 | 10.0 | 0.00 | 0.00 | 0.00 | 18 | 1010.0 |
| 20260501231005 | 86 | 321 | 5.0 | 10.0 | 0.00 | 0.00 | 0.00 | 18 | 1010.0 |
| 20260501230511 | 87 | 326 | 3.0 | 7.0 | 0.00 | 0.00 | 0.00 | 18 | 1010.0 |
| 20260501230021 | 87 | 350 | 3.0 | 8.0 | 0.00 | 0.00 | 0.00 | 18 | 1010.0 |
| 20260501225506 | 86 | 267 | 2.0 | 10.0 | 0.00 | 0.00 | 0.00 | 18 | 1010.1 |
| 20260501225008 | 86 | 252 | 6.0 | 10.0 | 0.00 | 0.00 | 0.00 | 18 | 1010.2 |
| 20260501224520 | 86 | 267 | 4.0 | 9.0 | 0.00 | 0.00 | 0.00 | 18 | 1010.2 |
| 20260501224004 | 86 | 276 | 6.0 | 10.0 | 0.00 | 0.00 | 0.00 | 18 | 1010.3 |
| 20260501223513 | 85 | 333 | 5.0 | 13.0 | 0.00 | 0.00 | 0.00 | 18 | 1010.3 |
| 20260501223022 | 85 | 297 | 6.0 | 13.0 | 0.00 | 0.00 | 0.00 | 18 | 1010.4 |
| 20260501222504 | 86 | 1 | 6.0 | 13.0 | 0.00 | 0.00 | 0.00 | 19 | 1010.5 |
| 20260501222010 | 85 | 355 | 3.0 | 9.0 | 0.00 | 0.00 | 0.00 | 19 | 1010.6 |
| 20260501221521 | 86 | 341 | 3.0 | 10.0 | 0.00 | 0.00 | 0.00 | 19 | 1010.7 |
| 20260501221005 | 86 | 239 | 5.0 | 16.0 | 0.00 | 0.00 | 0.00 | 19 | 1010.7 |
| 20260501220513 | 85 | 347 | 3.0 | 16.0 | 0.00 | 0.00 | 0.00 | 19 | 1010.8 |
| 20260501220020 | 84 | 310 | 5.0 | 16.0 | 0.00 | 0.00 | 0.00 | 19 | 1010.6 |
| 20260501215505 | 85 | 345 | 5.0 | 10.0 | 0.00 | 0.00 | 0.00 | 19 | 1011.0 |
| 20260501215007 | 85 | 360 | 2.0 | 10.0 | 0.00 | 0.00 | 0.00 | 20 | 1011.0 |
| 20260501214523 | 84 | 264 | 4.0 | 10.0 | 0.00 | 0.00 | 0.00 | 20 | 1011.1 |
| 20260501214003 | 84 | 360 | 5.0 | 13.0 | 0.00 | 0.00 | 0.00 | 20 | 1011.2 |
| 20260501213510 | 84 | 342 | 2.0 | 13.0 | 0.00 | 0.00 | 0.00 | 19 | 1011.3 |
| 20260501213039 | 84 | 267 | 4.0 | 10.0 | 0.00 | 0.00 | 0.00 | 19 | 1011.3 |
| 20260501212504 | 83 | 19 | 3.0 | 10.0 | 0.00 | 0.00 | 0.00 | 20 | 1011.3 |
| 20260501212010 | 84 | 301 | 6.0 | 9.0 | 0.00 | 0.00 | 0.00 | 20 | 1011.4 |
| 20260501211527 | 86 | 290 | 2.0 | 9.0 | 0.00 | 0.00 | 0.00 | 19 | 1011.4 |
| 20260501211003 | 85 | 28 | 2.0 | 10.0 | 0.00 | 0.00 | 0.00 | 20 | 1011.6 |
| 20260501210508 | 83 | 13 | 5.0 | 10.0 | 0.00 | 0.00 | 0.00 | 20 | 1011.6 |
| 20260501210035 | 84 | 15 | 5.0 | 10.0 | 0.00 | 0.00 | 0.00 | 19 | 1011.5 |
| 20260501205507 | 84 | 278 | 1.0 | 11.0 | 0.00 | 0.00 | 0.00 | 19 | 1011.5 |
| 20260501205004 | 83 | 304 | 4.0 | 11.0 | 0.00 | 0.00 | 0.00 | 20 | 1011.7 |
| 20260501204525 | 84 | 334 | 3.0 | 11.0 | 0.00 | 0.00 | 0.00 | 20 | 1011.7 |
| 20260501204004 | 83 | 10 | 2.0 | 11.0 | 0.00 | 0.00 | 0.00 | 21 | 1011.7 |
| 20260501203503 | 83 | 9 | 5.0 | 11.0 | 0.00 | 0.00 | 0.00 | 21 | 1011.8 |
| 20260501203022 | 84 | 13 | 4.0 | 11.0 | 0.00 | 0.00 | 0.00 | 20 | 1011.8 |
| 20260501202505 | 83 | 360 | 4.0 | 7.0 | 0.00 | 0.00 | 0.00 | 21 | 1011.9 |
| 20260501202003 | 83 | 59 | 1.0 | 10.0 | 0.00 | 0.00 | 0.00 | 21 | 1011.9 |
| 20260501201522 | 82 | 360 | 3.0 | 10.0 | 0.00 | 0.00 | 0.00 | 22 | 1012.1 |
| 20260501201003 | 83 | 304 | 7.0 | 10.0 | 0.00 | 0.00 | 0.00 | 21 | 1012.2 |
| 20260501200503 | 82 | 8 | 1.0 | 9.0 | 0.00 | 0.00 | 0.00 | 22 | 1012.1 |
| 20260501200020 | 83 | 360 | 2.0 | 11.0 | 0.00 | 0.00 | 0.00 | 22 | 1012.2 |
| 20260501195506 | 82 | 10 | 6.0 | 11.0 | 0.00 | 0.00 | 0.00 | 22 | 1012.2 |
| 20260501195004 | 83 | 9 | 4.0 | 10.0 | 0.00 | 0.00 | 0.00 | 21 | 1012.2 |
| 20260501194525 | 81 | 9 | 4.0 | 11.0 | 0.00 | 0.00 | 0.00 | 22 | 1012.3 |
| 20260501194010 | 81 | 8 | 3.0 | 11.0 | 0.00 | 0.00 | 0.00 | 23 | 1012.4 |
| 20260501193503 | 81 | 8 | 5.0 | 10.0 | 0.00 | 0.00 | 0.00 | 24 | 1012.4 |
| 20260501193023 | 82 | 10 | 5.0 | 10.0 | 0.00 | 0.00 | 0.00 | 23 | 1012.5 |
| 20260501192504 | 81 | 10 | 3.0 | 9.0 | 0.00 | 0.00 | 0.00 | 23 | 1012.5 |
| 20260501192003 | 80 | 9 | 1.0 | 11.0 | 0.00 | 0.00 | 0.00 | 24 | 1012.6 |
| 20260501191520 | 80 | 9 | 5.0 | 11.0 | 0.00 | 0.00 | 0.00 | 23 | 1012.7 |
| 20260501191006 | 82 | 10 | 6.0 | 10.0 | 0.00 | 0.00 | 0.00 | 23 | 1012.7 |
| 20260501190503 | 81 | 8 | 2.0 | 8.0 | 0.00 | 0.00 | 0.00 | 24 | 1012.7 |
| 20260501190021 | 79 | 9 | 2.0 | 9.0 | 0.00 | 0.00 | 0.00 | 25 | 1012.9 |
| 20260501185503 | 80 | 8 | 3.0 | 9.0 | 0.00 | 0.00 | 0.00 | 25 | 1013.0 |
| 20260501185004 | 79 | 8 | 3.0 | 11.0 | 0.00 | 0.00 | 0.00 | 26 | 1013.1 |
| 20260501184522 | 79 | 8 | 4.0 | 11.0 | 0.00 | 0.00 | 0.00 | 26 | 1013.2 |
| 20260501184004 | 78 | 8 | 3.0 | 9.0 | 0.00 | 0.00 | 0.00 | 25 | 1013.3 |